Aérodrome :
LOGIN :

S'inscrire | Disclaimer

   EN    FR    IT 

 










Légende :    VFR   VFR Marginal   IFR   IFR Intensif   IFR Très Intensif
Visi : 
Plafond : 
>= 8 km
>= 3000ft
5 à 8 km
1000 à 3000 ft
1500m à 5 km
500 à 1000 ft
800 à 1500m
200 à 500 ft
< 800m
< 200 ft
Symboles :   Orages  Brouillard  Fortes neiges  Fortes précipitations  Vent > 20 kt
SIGMETs :   Divers  Orages  Givrage  Turbulence  Onde Orograph.  Cendres Volcan.






- Altitude de l'aérodrome : 26 ft
- Code IATA : GLA


EGPF - Glasgow

DERNIER METAR :
  • 151650Z AUTO 27010KT 9999 BKN019 OVC024 15/12 Q1014

METARs EXPIRÉS :
  • 151620Z AUTO 26011KT 9999 BKN020 OVC029 15/12 Q1013
  • 151550Z AUTO 26011KT 9999 BKN021 OVC035 16/12 Q1013
  • 151520Z AUTO 27012KT 9999 BKN020 OVC035 16/12 Q1013
  • 151450Z AUTO 26011KT 9999 BKN020 OVC027 16/12 Q1013
  • 151420Z AUTO 25010KT 9999 BKN020 OVC025 16/12 Q1013

TAF AMD TAF EGPF
Valide du 15 à 13h jusqu'au 16 à 12h UTC


151336Z 1513/1612 29012KT 9999 FEW010 BKN020
TEMPO 1513/1612 7000 -RADZ BKN014
PROB30
TEMPO 1513/1523 4000 RADZ
PROB30
TEMPO 1523/1612 3000 RADZ BKN005
ATIS : +44 141 887 7449



MET'MAP, la Météo Aéronautique d'un coup d'oeil ! - Copyright ORBIFLY Décembre 2007 - Disclaimer

ORBIFLY MET'MAP TEAM :

Programmation & Développement : Alexandra Zaïnal
Sur une idée originale de : Baudouin d'Aumeries
Assistance à la programmation : Marc-Olivier Méhu
Soutien technique & logistique : Manuel Goepfert

Contact : metmap@orbifly.com




SOURCES & CREDITS :

   NOAA